Time;durP1;ratioP1;P1;durP2;ratioP2;P2;SDS_P1;SDS_P2;PMS_P1;PMS_P2;Temp;Humidity;BMP_temperature;BMP_pressure;BME280_temperature;BME280_humidity;BME280_pressure;Samples;Min_cycle;Max_cycle;Signal;HPM_P1;HPM_P2
2023/09/18 00:02:25;;;;;;;41.03;36.88;;;17.90;99.90;;;;;;4986705;28;20492;-53
2023/09/18 00:04:51;;;;;;;40.10;36.15;;;17.90;99.90;;;;;;5004699;28;20042;-55
2023/09/18 00:07:16;;;;;;;39.17;35.05;;;17.80;99.90;;;;;;5004739;28;20434;-55
2023/09/18 00:09:42;;;;;;;37.13;33.33;;;17.90;99.90;;;;;;5005856;28;20049;-55
2023/09/18 00:12:09;;;;;;;36.83;33.10;;;17.80;99.90;;;;;;5006079;28;20038;-54
2023/09/18 00:14:35;;;;;;;34.50;31.15;;;17.80;99.90;;;;;;5004270;28;20057;-52
2023/09/18 00:17:02;;;;;;;35.95;32.13;;;17.80;99.90;;;;;;5003155;28;20038;-55
2023/09/18 00:19:28;;;;;;;34.95;31.50;;;17.80;99.90;;;;;;5004890;28;20037;-55
2023/09/18 00:21:54;;;;;;;37.25;33.42;;;17.80;99.90;;;;;;5005000;28;20138;-55
2023/09/18 00:24:20;;;;;;;35.67;32.17;;;17.80;99.90;;;;;;5004804;28;20041;-55
2023/09/18 00:26:46;;;;;;;34.83;31.42;;;17.80;99.90;;;;;;5004449;28;20485;-53
2023/09/18 00:29:14;;;;;;;36.72;32.90;;;17.80;99.90;;;;;;5005235;28;20061;-55
2023/09/18 00:31:40;;;;;;;35.47;31.95;;;17.80;99.90;;;;;;4998218;28;20120;-54
2023/09/18 00:34:05;;;;;;;36.05;32.55;;;17.80;99.90;;;;;;4984833;28;20054;-54
2023/09/18 00:36:31;;;;;;;35.97;32.58;;;17.70;99.90;;;;;;4985021;28;20092;-54
2023/09/18 00:38:56;;;;;;;36.90;33.17;;;17.70;99.90;;;;;;4985292;28;20042;-55
2023/09/18 00:41:22;;;;;;;36.45;32.78;;;17.60;99.90;;;;;;4967589;28;20042;-54
2023/09/18 00:43:48;;;;;;;33.45;30.13;;;17.60;99.90;;;;;;4984512;28;20475;-53
2023/09/18 00:46:13;;;;;;;33.70;30.38;;;17.60;99.90;;;;;;4984975;28;20515;-54
2023/09/18 00:48:40;;;;;;;37.08;33.55;;;17.50;99.90;;;;;;4985536;28;20097;-54
2023/09/18 00:51:07;;;;;;;34.38;31.13;;;17.50;99.90;;;;;;4983634;28;20100;-55
2023/09/18 00:53:32;;;;;;;36.38;32.75;;;17.60;99.90;;;;;;4985550;28;20068;-55
2023/09/18 00:56:00;;;;;;;37.00;33.40;;;17.60;99.90;;;;;;4985245;28;20497;-55
2023/09/18 00:58:26;;;;;;;34.72;31.20;;;17.60;99.90;;;;;;4985327;28;20038;-55
2023/09/18 01:00:52;;;;;;;35.53;32.20;;;17.70;99.90;;;;;;4965767;28;20705;-55
2023/09/18 01:03:21;;;;;;;35.83;32.25;;;17.60;99.90;;;;;;4984728;28;20154;-54
2023/09/18 01:05:47;;;;;;;36.30;32.63;;;17.60;99.90;;;;;;4984552;28;20101;-54
2023/09/18 01:08:12;;;;;;;34.55;31.27;;;17.60;99.90;;;;;;4966217;28;20453;-56
2023/09/18 01:11:00;;;;;;;35.10;31.40;;;17.50;99.90;;;;;;4984315;28;20057;-54
2023/09/18 01:13:55;;;;;;;35.13;31.83;;;17.50;99.90;;;;;;4984238;28;20069;-54
2023/09/18 01:16:27;;;;;;;34.67;31.27;;;17.50;99.90;;;;;;4967320;28;20073;-55
2023/09/18 01:18:52;;;;;;;35.72;32.03;;;17.50;99.90;;;;;;4987520;28;20101;-56
2023/09/18 01:21:21;;;;;;;37.08;33.47;;;17.60;99.90;;;;;;4984899;28;20038;-55
2023/09/18 01:23:48;;;;;;;35.90;32.17;;;17.60;99.90;;;;;;4984337;28;20043;-55
2023/09/18 01:26:14;;;;;;;38.72;34.72;;;17.60;99.90;;;;;;4985075;28;20034;-56
2023/09/18 01:28:40;;;;;;;36.20;32.53;;;17.60;99.90;;;;;;4984489;28;20512;-55
2023/09/18 01:31:05;;;;;;;36.75;33.28;;;17.60;99.90;;;;;;4973047;28;20042;-55
2023/09/18 01:33:33;;;;;;;36.22;32.78;;;17.60;99.90;;;;;;4989088;28;20506;-54
2023/09/18 01:36:00;;;;;;;35.33;31.83;;;17.60;99.90;;;;;;4983099;28;20097;-55
2023/09/18 01:38:27;;;;;;;35.20;31.70;;;17.60;99.90;;;;;;4967201;28;20054;-54
2023/09/18 01:40:54;;;;;;;33.85;30.48;;;17.60;99.90;;;;;;5000983;28;20045;-55
2023/09/18 01:43:20;;;;;;;33.20;29.88;;;17.60;99.90;;;;;;5003261;28;20050;-55
2023/09/18 01:45:47;;;;;;;33.55;30.15;;;17.60;99.90;;;;;;5002330;28;20038;-53
2023/09/18 01:48:13;;;;;;;34.65;31.35;;;17.60;99.90;;;;;;5003664;28;20042;-55
2023/09/18 01:50:40;;;;;;;34.05;30.85;;;17.60;99.90;;;;;;5002895;28;20056;-55
2023/09/18 01:53:06;;;;;;;32.90;29.60;;;17.60;99.90;;;;;;5002352;28;20689;-54
2023/09/18 01:55:32;;;;;;;32.33;29.15;;;17.70;99.90;;;;;;4985454;28;20121;-55
2023/09/18 01:57:58;;;;;;;32.42;29.33;;;17.60;99.90;;;;;;5003841;28;20041;-55
2023/09/18 02:00:24;;;;;;;32.10;29.20;;;17.70;99.90;;;;;;5002819;28;20124;-54
2023/09/18 02:02:50;;;;;;;30.50;27.38;;;17.80;99.90;;;;;;5003176;28;20058;-55
2023/09/18 02:05:15;;;;;;;32.45;29.33;;;17.70;99.90;;;;;;5003538;28;20129;-55
2023/09/18 02:07:41;;;;;;;30.80;27.73;;;17.70;99.90;;;;;;5004066;28;20500;-55
2023/09/18 02:10:07;;;;;;;30.92;27.75;;;17.60;99.90;;;;;;5003543;28;20443;-53
2023/09/18 02:12:33;;;;;;;30.75;27.65;;;17.60;99.90;;;;;;5003102;28;20081;-54
2023/09/18 02:15:01;;;;;;;30.10;27.00;;;17.60;99.90;;;;;;4985570;28;20057;-54
2023/09/18 02:17:26;;;;;;;29.65;26.67;;;17.70;99.90;;;;;;5002712;28;20042;-54
2023/09/18 02:19:52;;;;;;;28.58;25.58;;;17.60;99.90;;;;;;5002910;28;20108;-54
2023/09/18 02:22:17;;;;;;;27.65;24.98;;;17.60;99.90;;;;;;5002888;28;20042;-55
2023/09/18 02:24:43;;;;;;;26.98;24.33;;;17.70;99.90;;;;;;5003339;28;20049;-54
2023/09/18 02:27:10;;;;;;;27.45;24.77;;;17.70;99.90;;;;;;5003342;28;20042;-55
2023/09/18 02:29:36;;;;;;;26.40;23.88;;;17.70;99.90;;;;;;5001021;28;20081;-54
2023/09/18 02:32:02;;;;;;;26.45;23.92;;;17.70;99.90;;;;;;4974747;28;20081;-54
2023/09/18 02:34:27;;;;;;;25.98;23.48;;;17.80;99.90;;;;;;5003282;28;20053;-55
2023/09/18 02:36:53;;;;;;;25.73;23.23;;;17.80;99.90;;;;;;4984923;28;20640;-54
2023/09/18 02:39:19;;;;;;;25.77;23.13;;;17.80;99.90;;;;;;5004403;28;20049;-53
2023/09/18 02:41:45;;;;;;;25.02;22.35;;;17.90;99.90;;;;;;4990366;28;20038;-55
2023/09/18 02:44:10;;;;;;;24.85;22.38;;;17.90;99.90;;;;;;5007652;28;20042;-54
2023/09/18 02:46:38;;;;;;;26.75;23.98;;;17.80;99.90;;;;;;5005981;28;20064;-55
2023/09/18 02:49:03;;;;;;;24.48;22.23;;;17.90;99.90;;;;;;5007050;28;20058;-55
2023/09/18 02:51:31;;;;;;;25.65;23.15;;;17.80;99.90;;;;;;5007139;28;20053;-54
2023/09/18 02:53:57;;;;;;;25.40;22.83;;;17.90;99.90;;;;;;4970533;28;20066;-55
2023/09/18 02:56:22;;;;;;;24.98;22.38;;;17.90;99.90;;;;;;4969745;28;20581;-55
2023/09/18 02:58:48;;;;;;;23.38;21.00;;;17.90;99.90;;;;;;4969293;28;20052;-55
2023/09/18 03:01:14;;;;;;;24.58;22.10;;;17.80;99.90;;;;;;4987047;28;20097;-54
2023/09/18 03:03:41;;;;;;;24.35;21.98;;;17.80;99.90;;;;;;4986872;28;20072;-54
2023/09/18 03:06:07;;;;;;;23.08;20.80;;;17.80;99.90;;;;;;4987578;28;20148;-54
2023/09/18 03:08:33;;;;;;;22.30;20.20;;;17.90;99.90;;;;;;4987636;28;20703;-55
2023/09/18 03:10:59;;;;;;;22.65;20.25;;;17.90;99.90;;;;;;4987588;28;20045;-54
2023/09/18 03:13:31;;;;;;;24.30;21.77;;;17.80;99.90;;;;;;4986155;28;20448;-54
2023/09/18 03:15:57;;;;;;;23.35;21.05;;;17.80;99.90;;;;;;4986257;28;20040;-56
2023/09/18 03:18:23;;;;;;;22.55;20.25;;;17.80;99.90;;;;;;4969638;28;20046;-55
2023/09/18 03:20:48;;;;;;;24.10;21.50;;;17.90;99.90;;;;;;4968787;28;20118;-56
2023/09/18 03:23:14;;;;;;;22.85;20.38;;;17.80;99.90;;;;;;4987375;28;20074;-55
2023/09/18 03:25:40;;;;;;;23.30;20.90;;;17.80;99.90;;;;;;4969311;28;20439;-54
2023/09/18 03:28:05;;;;;;;23.10;20.58;;;17.70;99.90;;;;;;4986148;28;20125;-54
2023/09/18 03:30:31;;;;;;;23.25;20.98;;;17.80;99.90;;;;;;4969624;28;20046;-53
2023/09/18 03:32:57;;;;;;;23.90;21.42;;;17.80;99.90;;;;;;4995521;28;20109;-54
2023/09/18 03:35:22;;;;;;;23.70;21.17;;;17.70;99.90;;;;;;4986244;28;20050;-55
2023/09/18 03:37:53;;;;;;;23.35;21.05;;;17.70;99.90;;;;;;4985525;28;20676;-55
2023/09/18 03:40:19;;;;;;;23.27;20.88;;;17.70;99.90;;;;;;4987674;28;20116;-55
2023/09/18 03:42:46;;;;;;;25.20;22.45;;;17.70;99.90;;;;;;4987188;28;20440;-55
2023/09/18 03:45:12;;;;;;;24.75;21.98;;;17.70;99.90;;;;;;4985954;28;20397;-55
2023/09/18 03:47:39;;;;;;;24.13;21.58;;;17.60;99.90;;;;;;4985660;28;20076;-54
2023/09/18 03:50:06;;;;;;;25.67;23.17;;;17.70;99.90;;;;;;4985450;28;20046;-55
2023/09/18 03:52:32;;;;;;;24.45;22.02;;;17.60;99.90;;;;;;4985069;28;20555;-55
2023/09/18 03:54:57;;;;;;;24.00;21.50;;;17.60;99.90;;;;;;4985137;28;20129;-55
2023/09/18 03:57:23;;;;;;;24.90;22.27;;;17.60;99.90;;;;;;4967779;28;20030;-55
2023/09/18 03:59:49;;;;;;;24.10;21.73;;;17.60;99.90;;;;;;4968521;28;20038;-55
2023/09/18 04:02:14;;;;;;;26.88;23.40;;;17.60;99.90;;;;;;4985462;28;20042;-54
2023/09/18 04:04:40;;;;;;;25.10;22.17;;;17.60;99.90;;;;;;4966869;28;20058;-55
2023/09/18 04:07:06;;;;;;;25.40;22.70;;;17.60;99.90;;;;;;4985616;28;20401;-55
2023/09/18 04:09:32;;;;;;;24.27;21.85;;;17.60;99.90;;;;;;4984974;28;20054;-55
2023/09/18 04:11:58;;;;;;;25.35;22.75;;;17.60;99.90;;;;;;4984123;28;20096;-55
2023/09/18 04:14:24;;;;;;;23.70;21.27;;;17.60;99.90;;;;;;4985608;28;20042;-55
2023/09/18 04:16:50;;;;;;;25.17;21.48;;;17.60;99.90;;;;;;4985283;28;20042;-54
2023/09/18 04:19:15;;;;;;;24.17;21.67;;;17.60;99.90;;;;;;4984624;28;20141;-55
2023/09/18 04:21:41;;;;;;;24.55;21.98;;;17.60;99.90;;;;;;4985035;28;20576;-55
2023/09/18 04:24:07;;;;;;;24.45;21.83;;;17.60;99.90;;;;;;4985571;28;20092;-55
2023/09/18 04:26:33;;;;;;;25.15;21.35;;;17.70;99.90;;;;;;4968008;28;20042;-54
2023/09/18 04:29:00;;;;;;;23.20;20.80;;;17.60;99.90;;;;;;4985548;28;20122;-55
2023/09/18 04:31:27;;;;;;;24.13;21.73;;;17.70;99.90;;;;;;4993465;28;20042;-55
2023/09/18 04:33:53;;;;;;;24.08;21.67;;;17.70;99.90;;;;;;4987185;28;20511;-56
2023/09/18 04:36:19;;;;;;;24.95;22.35;;;17.70;99.90;;;;;;4986294;28;20042;-54
2023/09/18 04:38:44;;;;;;;24.50;21.98;;;17.70;99.90;;;;;;4984829;28;20050;-55
2023/09/18 04:41:14;;;;;;;24.85;21.88;;;17.60;99.90;;;;;;4985109;28;20049;-55
2023/09/18 04:43:40;;;;;;;24.27;21.77;;;17.70;99.90;;;;;;4984990;28;20090;-54
2023/09/18 04:46:06;;;;;;;22.48;20.08;;;17.70;99.90;;;;;;4967377;28;20054;-54
2023/09/18 04:48:32;;;;;;;22.20;20.00;;;17.70;99.90;;;;;;4966872;28;20058;-55
2023/09/18 04:50:59;;;;;;;26.27;21.30;;;17.70;99.90;;;;;;4985286;28;20070;-55
2023/09/18 04:53:25;;;;;;;26.58;21.33;;;17.60;99.90;;;;;;4984310;28;20050;-55
2023/09/18 04:55:50;;;;;;;25.98;21.52;;;17.70;99.90;;;;;;4984674;28;20031;-54
2023/09/18 04:58:19;;;;;;;23.17;20.40;;;17.70;99.90;;;;;;4967440;28;20138;-54
2023/09/18 05:00:46;;;;;;;21.77;19.33;;;17.70;99.90;;;;;;4984586;28;20073;-55
2023/09/18 05:03:12;;;;;;;22.83;19.48;;;17.80;99.90;;;;;;4985049;28;20833;-54
2023/09/18 05:05:38;;;;;;;22.27;19.88;;;17.80;99.90;;;;;;4984357;28;20042;-55
2023/09/18 05:08:10;;;;;;;21.73;19.45;;;17.80;99.90;;;;;;4984241;28;20054;-54
2023/09/18 05:10:36;;;;;;;21.52;19.33;;;17.80;99.90;;;;;;4996491;28;20061;-54
2023/09/18 05:13:02;;;;;;;22.42;18.90;;;17.90;99.90;;;;;;4981785;28;20057;-54
2023/09/18 05:15:32;;;;;;;23.60;18.85;;;17.90;99.90;;;;;;4982982;28;20046;-55
2023/09/18 05:17:59;;;;;;;20.48;18.38;;;17.90;99.90;;;;;;4984627;28;20046;-54
2023/09/18 05:20:27;;;;;;;20.58;18.35;;;17.90;99.90;;;;;;4966234;28;20054;-57
2023/09/18 05:22:54;;;;;;;21.90;18.73;;;17.90;99.90;;;;;;4984182;28;20066;-53
2023/09/18 05:25:25;;;;;;;22.25;18.33;;;18.00;99.90;;;;;;4984468;28;20049;-54
2023/09/18 05:27:56;;;;;;;20.02;17.80;;;18.00;99.90;;;;;;4994266;28;20046;-55
2023/09/18 05:30:29;;;;;;;22.75;17.40;;;18.10;99.90;;;;;;4997977;28;20042;-53
2023/09/18 05:33:04;;;;;;;19.25;17.20;;;18.00;99.90;;;;;;4993696;28;20053;-55
2023/09/18 05:35:36;;;;;;;19.50;17.25;;;18.10;99.90;;;;;;4984186;28;20385;-55
2023/09/18 05:38:02;;;;;;;20.77;17.60;;;18.10;99.90;;;;;;4985519;28;20054;-54
2023/09/18 05:40:28;;;;;;;22.23;16.75;;;18.20;99.90;;;;;;5002027;28;20053;-54
2023/09/18 05:42:55;;;;;;;20.02;15.27;;;18.30;99.90;;;;;;4985397;28;20419;-54
2023/09/18 05:45:21;;;;;;;17.33;15.60;;;18.20;99.90;;;;;;5003461;28;20064;-54
2023/09/18 05:47:48;;;;;;;17.73;15.63;;;18.30;99.90;;;;;;5003929;28;20050;-54
2023/09/18 05:50:17;;;;;;;17.98;15.93;;;18.30;99.90;;;;;;5004443;28;20491;-54
2023/09/18 05:52:47;;;;;;;19.27;15.75;;;18.30;99.90;;;;;;5003543;28;20057;-52
2023/09/18 05:55:15;;;;;;;19.55;15.38;;;18.30;99.90;;;;;;5002824;28;20061;-54
2023/09/18 05:57:40;;;;;;;21.08;15.13;;;18.30;99.90;;;;;;5002750;28;20511;-55
2023/09/18 06:00:07;;;;;;;19.27;15.38;;;18.30;99.90;;;;;;5000676;28;20056;-54
2023/09/18 06:02:32;;;;;;;20.65;15.07;;;18.30;99.90;;;;;;4985301;28;20751;-53
2023/09/18 06:05:02;;;;;;;17.60;15.38;;;18.30;99.90;;;;;;5003595;28;20045;-55
2023/09/18 06:07:28;;;;;;;20.52;14.98;;;18.40;99.90;;;;;;5001938;28;20065;-55
2023/09/18 06:09:53;;;;;;;19.50;15.07;;;18.40;99.90;;;;;;5002964;28;20485;-54
2023/09/18 06:12:20;;;;;;;18.83;15.15;;;18.40;99.90;;;;;;5003884;28;20046;-54
2023/09/18 06:14:48;;;;;;;21.15;14.07;;;18.60;99.90;;;;;;5003354;28;20455;-53
2023/09/18 06:17:14;;;;;;;19.80;14.63;;;18.50;99.90;;;;;;4988350;28;20041;-56
2023/09/18 06:19:41;;;;;;;17.27;14.07;;;18.40;99.90;;;;;;5007078;28;20046;-55
2023/09/18 06:22:07;;;;;;;15.88;14.02;;;18.50;99.90;;;;;;5007181;28;20029;-54
2023/09/18 06:24:34;;;;;;;15.30;13.27;;;18.50;99.90;;;;;;5006463;28;20045;-56
2023/09/18 06:26:59;;;;;;;17.50;14.13;;;18.60;99.90;;;;;;4989677;28;20042;-56
2023/09/18 06:29:25;;;;;;;17.45;13.88;;;18.60;99.90;;;;;;5006525;28;20524;-56
2023/09/18 06:31:51;;;;;;;16.88;13.55;;;18.70;99.90;;;;;;4998760;28;20034;-56
2023/09/18 06:34:17;;;;;;;18.00;13.25;;;18.70;99.90;;;;;;5001243;28;20054;-56
2023/09/18 06:36:42;;;;;;;21.00;12.80;;;18.80;99.90;;;;;;5007532;28;20134;-54
2023/09/18 06:39:08;;;;;;;14.63;12.98;;;18.80;99.90;;;;;;5007459;28;20073;-56
2023/09/18 06:41:33;;;;;;;17.35;12.73;;;18.80;99.90;;;;;;5006308;28;20096;-58
2023/09/18 06:44:02;;;;;;;17.20;12.02;;;18.80;99.90;;;;;;5006314;28;20045;-58
2023/09/18 06:46:28;;;;;;;17.35;11.73;;;18.80;99.90;;;;;;4988204;28;20061;-56
2023/09/18 06:48:54;;;;;;;12.98;11.10;;;18.90;99.90;;;;;;5007426;28;20573;-58
2023/09/18 06:51:19;;;;;;;15.48;13.88;;;18.90;99.90;;;;;;5005835;28;20133;-57
2023/09/18 06:53:45;;;;;;;13.25;10.75;;;18.90;99.90;;;;;;5006564;28;20492;-53
2023/09/18 06:56:12;;;;;;;14.23;10.90;;;19.00;99.90;;;;;;5006476;28;20109;-56
2023/09/18 06:58:38;;;;;;;14.40;9.90;;;19.10;99.90;;;;;;5006590;28;20038;-58
2023/09/18 07:01:06;;;;;;;12.68;9.55;;;19.10;99.90;;;;;;5005660;28;20048;-58
2023/09/18 07:03:34;;;;;;;13.48;9.25;;;19.20;99.90;;;;;;5006280;28;20064;-57
2023/09/18 07:06:00;;;;;;;13.00;9.43;;;19.10;99.90;;;;;;5006715;28;20073;-56
2023/09/18 07:08:26;;;;;;;11.43;8.95;;;19.20;99.90;;;;;;5005037;28;20484;-56
2023/09/18 07:10:52;;;;;;;14.23;9.38;;;19.20;99.90;;;;;;4987349;28;20084;-58
2023/09/18 07:13:17;;;;;;;15.68;8.88;;;19.20;99.90;;;;;;5005911;28;20053;-55
2023/09/18 07:15:43;;;;;;;14.40;9.20;;;19.20;99.90;;;;;;5004779;28;20046;-59
2023/09/18 07:18:13;;;;;;;19.40;9.63;;;19.30;99.90;;;;;;5004213;28;20056;-55
2023/09/18 07:20:40;;;;;;;16.90;9.90;;;19.20;99.90;;;;;;5004770;28;20061;-51
2023/09/18 07:23:05;;;;;;;14.35;9.27;;;19.20;99.90;;;;;;5006401;28;20065;-54
2023/09/18 07:25:31;;;;;;;18.60;10.40;;;19.20;99.90;;;;;;5005468;28;20400;-51
2023/09/18 07:27:56;;;;;;;18.23;9.65;;;19.10;99.90;;;;;;5006103;28;20133;-58
2023/09/18 07:30:26;;;;;;;14.95;10.55;;;19.10;99.90;;;;;;4982861;28;20051;-54
2023/09/18 07:32:56;;;;;;;22.17;15.38;;;19.00;99.90;;;;;;5003327;28;20049;-53
2023/09/18 07:35:22;;;;;;;35.13;26.30;;;19.00;99.90;;;;;;5005878;28;20050;-57
2023/09/18 07:37:48;;;;;;;16.25;11.32;;;19.00;99.90;;;;;;5004792;28;20110;-55
2023/09/18 07:40:15;;;;;;;17.98;11.82;;;18.90;99.90;;;;;;4987404;28;20449;-56
2023/09/18 07:42:43;;;;;;;22.02;14.68;;;19.00;99.90;;;;;;5003764;28;20052;-57
2023/09/18 07:45:09;;;;;;;25.23;16.33;;;19.00;99.90;;;;;;5005631;28;20128;-57
2023/09/18 07:47:35;;;;;;;18.10;13.57;;;18.90;99.90;;;;;;4988189;28;20168;-56
2023/09/18 07:50:01;;;;;;;18.85;13.40;;;19.00;99.90;;;;;;4988421;28;20396;-56
2023/09/18 07:52:27;;;;;;;20.60;14.82;;;19.00;99.90;;;;;;5004554;28;20049;-56
2023/09/18 07:54:52;;;;;;;16.17;13.52;;;18.90;99.90;;;;;;5004478;28;20765;-58
2023/09/18 07:57:19;;;;;;;19.20;14.35;;;19.00;99.90;;;;;;5004807;28;20100;-57
2023/09/18 07:59:46;;;;;;;19.80;14.75;;;19.00;99.90;;;;;;4998640;28;20046;-57
2023/09/18 08:02:11;;;;;;;25.90;15.30;;;18.90;99.90;;;;;;4987416;28;20050;-59
2023/09/18 08:04:37;;;;;;;18.90;13.25;;;19.10;99.90;;;;;;5004906;28;20396;-59
2023/09/18 08:07:05;;;;;;;18.33;14.82;;;19.10;99.90;;;;;;5004642;28;20057;-61
2023/09/18 08:09:32;;;;;;;18.00;14.85;;;19.20;99.90;;;;;;4998808;28;20046;-56
2023/09/18 08:11:57;;;;;;;19.48;14.55;;;19.10;99.90;;;;;;5005209;28;20127;-59
2023/09/18 08:14:23;;;;;;;17.83;14.05;;;19.10;99.90;;;;;;4986896;28;20614;-60
2023/09/18 08:16:55;;;;;;;17.35;13.25;;;19.30;99.90;;;;;;5004328;28;20048;-58
2023/09/18 08:19:21;;;;;;;17.67;13.48;;;19.20;99.90;;;;;;5005489;28;20057;-56
2023/09/18 08:21:46;;;;;;;17.10;12.30;;;19.20;99.90;;;;;;5003962;28;20033;-58
2023/09/18 08:24:12;;;;;;;15.02;11.82;;;19.30;99.90;;;;;;5004082;28;20038;-58
2023/09/18 08:26:38;;;;;;;15.23;10.65;;;19.30;99.90;;;;;;5004339;28;20455;-56
2023/09/18 08:29:03;;;;;;;12.75;10.65;;;19.20;99.90;;;;;;5004601;28;20056;-55
2023/09/18 08:31:31;;;;;;;12.68;9.40;;;19.30;99.90;;;;;;4990144;28;20057;-56
2023/09/18 08:33:57;;;;;;;11.65;9.80;;;19.30;99.90;;;;;;5003050;28;20481;-58
2023/09/18 08:36:23;;;;;;;15.20;10.23;;;19.40;99.90;;;;;;5004742;28;20060;-58
2023/09/18 08:38:49;;;;;;;10.98;9.80;;;19.30;99.90;;;;;;5004031;28;20034;-56
2023/09/18 08:41:18;;;;;;;12.43;9.48;;;19.30;99.90;;;;;;5004445;28;20042;-57
2023/09/18 08:43:45;;;;;;;11.68;9.55;;;19.30;99.90;;;;;;5003742;28;20064;-56
2023/09/18 08:46:11;;;;;;;11.77;9.32;;;19.30;99.90;;;;;;5004749;28;20992;-53
2023/09/18 08:48:38;;;;;;;10.60;9.18;;;19.30;99.90;;;;;;5004865;28;20052;-54
2023/09/18 08:51:06;;;;;;;10.07;9.07;;;19.20;99.90;;;;;;4970958;28;20133;-59
2023/09/18 08:53:32;;;;;;;12.13;10.07;;;19.30;99.90;;;;;;4986673;28;20044;-59
2023/09/18 08:56:01;;;;;;;11.73;10.20;;;19.30;99.90;;;;;;5004229;28;20401;-57
2023/09/18 08:58:31;;;;;;;11.93;10.02;;;19.20;99.90;;;;;;5003252;28;20045;-56
2023/09/18 09:00:57;;;;;;;12.65;9.88;;;19.30;99.90;;;;;;5004076;28;20038;-58
2023/09/18 09:03:24;;;;;;;12.05;9.85;;;19.30;99.90;;;;;;5004046;28;20450;-57
2023/09/18 09:05:49;;;;;;;11.77;10.02;;;19.20;99.90;;;;;;5004769;28;20065;-58
2023/09/18 09:08:15;;;;;;;13.13;10.65;;;19.30;99.90;;;;;;5004295;28;20050;-58
2023/09/18 09:10:41;;;;;;;12.23;10.57;;;19.30;99.90;;;;;;5003299;28;20805;-61
2023/09/18 09:13:06;;;;;;;12.40;10.57;;;19.30;99.90;;;;;;5004415;28;20056;-60
2023/09/18 09:15:45;;;;;;;13.88;11.07;;;19.10;99.90;;;;;;4988173;28;20056;-59
2023/09/18 09:18:12;;;;;;;13.32;10.80;;;19.20;99.90;;;;;;5001287;28;20062;-57
2023/09/18 09:20:37;;;;;;;12.10;10.70;;;19.20;99.90;;;;;;5003584;28;20132;-57
2023/09/18 09:23:06;;;;;;;12.63;10.55;;;19.30;99.90;;;;;;5002711;28;20539;-56
2023/09/18 09:25:33;;;;;;;15.13;11.40;;;19.30;99.90;;;;;;5003466;28;20658;-57
2023/09/18 09:28:04;;;;;;;12.18;10.82;;;19.30;99.90;;;;;;5003190;28;20044;-56
2023/09/18 09:30:32;;;;;;;13.93;11.02;;;19.40;99.90;;;;;;4996927;28;20054;-54
2023/09/18 09:32:59;;;;;;;16.08;12.07;;;19.50;99.90;;;;;;4994110;28;20862;-55
2023/09/18 09:35:29;;;;;;;13.43;11.25;;;19.40;99.90;;;;;;5003011;28;20038;-57
2023/09/18 09:38:08;;;;;;;15.13;13.00;;;19.40;99.90;;;;;;5003194;28;20050;-58
2023/09/18 09:40:35;;;;;;;15.50;13.48;;;19.50;99.90;;;;;;5003729;28;20415;-60
2023/09/18 09:43:02;;;;;;;19.70;14.10;;;19.40;99.90;;;;;;5002968;28;20451;-58
2023/09/18 09:45:29;;;;;;;16.85;14.60;;;19.50;99.90;;;;;;5002732;28;20049;-60
2023/09/18 09:47:59;;;;;;;23.58;21.17;;;19.60;99.90;;;;;;4985887;28;20074;-57
2023/09/18 09:50:25;;;;;;;18.63;14.70;;;19.50;99.90;;;;;;5002809;28;20073;-56
2023/09/18 09:52:53;;;;;;;16.50;14.73;;;19.50;99.90;;;;;;5003179;28;20463;-58
2023/09/18 09:55:30;;;;;;;16.90;15.02;;;19.70;99.90;;;;;;5002797;28;20045;-57
2023/09/18 09:57:59;;;;;;;17.13;13.43;;;19.70;99.90;;;;;;5002623;28;20113;-57
2023/09/18 10:00:33;;;;;;;16.13;14.13;;;19.80;99.90;;;;;;5002332;28;20046;-58
2023/09/18 10:03:03;;;;;;;19.83;15.23;;;19.80;99.90;;;;;;5002739;28;20065;-57
2023/09/18 10:05:36;;;;;;;18.73;14.73;;;19.90;99.90;;;;;;4985184;28;20061;-54
2023/09/18 10:08:17;;;;;;;16.55;13.43;;;19.90;99.90;;;;;;5001583;28;20065;-59
2023/09/18 10:10:54;;;;;;;16.17;13.90;;;20.00;99.90;;;;;;5002817;28;20058;-53
2023/09/18 10:13:38;;;;;;;17.35;14.60;;;20.10;99.90;;;;;;5001835;28;20057;-55
2023/09/18 10:16:06;;;;;;;21.60;15.35;;;20.30;99.90;;;;;;5001008;28;20088;-54
2023/09/18 10:18:44;;;;;;;16.80;15.00;;;20.40;99.90;;;;;;4983939;28;20073;-60
2023/09/18 10:21:31;;;;;;;18.67;15.32;;;20.50;99.90;;;;;;5002425;28;20512;-56
2023/09/18 10:24:12;;;;;;;16.95;15.18;;;20.50;99.90;;;;;;5003350;28;20108;-56
2023/09/18 10:26:47;;;;;;;19.05;15.88;;;20.50;99.90;;;;;;5003362;28;20120;-59
2023/09/18 10:29:14;;;;;;;18.23;14.82;;;20.50;99.90;;;;;;5002139;28;20447;-58
2023/09/18 10:31:41;;;;;;;19.23;15.13;;;20.60;99.90;;;;;;4995652;28;20050;-59
2023/09/18 10:34:07;;;;;;;15.88;14.27;;;20.70;99.90;;;;;;4984148;28;20434;-59
2023/09/18 10:36:34;;;;;;;15.52;13.73;;;20.80;99.90;;;;;;4983739;28;20393;-61
2023/09/18 10:39:00;;;;;;;16.75;13.15;;;21.00;99.90;;;;;;4988187;28;20042;-59
2023/09/18 10:41:26;;;;;;;17.77;14.00;;;21.00;99.90;;;;;;5002216;28;20134;-60
2023/09/18 10:43:58;;;;;;;14.70;12.80;;;21.00;99.90;;;;;;5002091;28;20452;-56
2023/09/18 10:46:26;;;;;;;18.67;14.05;;;20.90;99.90;;;;;;4985468;28;20042;-57
2023/09/18 10:48:52;;;;;;;16.38;13.27;;;20.90;99.90;;;;;;5002652;28;20064;-57
2023/09/18 10:51:24;;;;;;;15.02;13.43;;;20.90;99.90;;;;;;5002691;28;20105;-57
2023/09/18 10:53:52;;;;;;;16.17;12.80;;;21.00;99.90;;;;;;5002879;28;20129;-58
2023/09/18 10:56:20;;;;;;;14.98;13.40;;;21.10;99.90;;;;;;5002118;28;20459;-59
2023/09/18 10:58:45;;;;;;;15.60;12.57;;;21.30;99.90;;;;;;4984244;28;20108;-60
2023/09/18 11:01:12;;;;;;;15.65;12.25;;;21.30;99.90;;;;;;4987279;28;20041;-59
2023/09/18 11:03:39;;;;;;;12.27;10.80;;;21.30;99.90;;;;;;5006355;28;20600;-58
2023/09/18 11:06:14;;;;;;;18.05;16.17;;;20.50;99.90;;;;;;5005395;28;20050;-56
2023/09/18 11:08:43;;;;;;;18.40;15.60;;;21.50;99.90;;;;;;4989336;28;20132;-57
2023/09/18 11:11:14;;;;;;;13.35;9.68;;;21.60;99.90;;;;;;5005063;28;20507;-57
2023/09/18 11:13:53;;;;;;;13.05;9.35;;;21.80;99.90;;;;;;5004298;28;20049;-57
2023/09/18 11:16:28;;;;;;;11.98;8.15;;;22.20;99.90;;;;;;4987951;28;20050;-57
2023/09/18 11:19:09;;;;;;;10.55;7.30;;;22.30;99.90;;;;;;5005201;28;20181;-53
2023/09/18 11:21:35;;;;;;;10.13;8.70;;;22.30;99.90;;;;;;4971564;28;20084;-55
2023/09/18 11:24:05;;;;;;;13.27;11.82;;;22.30;99.90;;;;;;5004655;28;20249;-57
2023/09/18 11:26:36;;;;;;;12.63;11.30;;;22.30;99.90;;;;;;4985640;28;20042;-55
2023/09/18 11:29:05;;;;;;;9.02;6.22;;;22.20;99.90;;;;;;5004920;28;20046;-56
2023/09/18 11:31:50;;;;;;;7.00;5.85;;;22.20;99.90;;;;;;5003595;28;20042;-56
2023/09/18 11:34:38;;;;;;;8.35;6.15;;;22.20;99.90;;;;;;4999014;28;20053;-57
2023/09/18 11:37:20;;;;;;;6.72;5.82;;;22.40;99.90;;;;;;5005089;28;20046;-56
2023/09/18 11:39:46;;;;;;;6.70;5.07;;;22.50;99.90;;;;;;5005469;28;20042;-53
2023/09/18 11:42:13;;;;;;;6.25;5.18;;;22.50;99.90;;;;;;5005535;28;20038;-54
2023/09/18 11:44:46;;;;;;;9.35;5.18;;;22.70;99.90;;;;;;4986776;28;20488;-56
2023/09/18 11:47:24;;;;;;;5.82;4.90;;;22.70;99.90;;;;;;4988118;28;20048;-60
2023/09/18 11:49:56;;;;;;;8.73;5.28;;;22.80;99.90;;;;;;5004679;28;20186;-57
2023/09/18 11:52:22;;;;;;;8.13;4.68;;;22.80;99.90;;;;;;4987288;28;20056;-60
2023/09/18 11:54:48;;;;;;;9.65;5.45;;;22.70;99.90;;;;;;5003965;28;20141;-57
2023/09/18 11:57:14;;;;;;;8.15;5.13;;;22.50;99.90;;;;;;5004641;28;20774;-62
2023/09/18 11:59:43;;;;;;;6.05;5.15;;;22.50;99.90;;;;;;5003750;28;20656;-60
2023/09/18 12:02:11;;;;;;;11.18;4.55;;;22.50;99.90;;;;;;5004906;28;20096;-56
2023/09/18 12:04:37;;;;;;;5.35;4.57;;;22.70;99.90;;;;;;5005143;28;20046;-59
2023/09/18 12:07:06;;;;;;;6.15;4.25;;;22.80;99.90;;;;;;5003734;28;20104;-56
2023/09/18 12:09:33;;;;;;;6.90;4.70;;;22.70;99.90;;;;;;5005393;28;20396;-57
2023/09/18 12:12:03;;;;;;;6.65;4.65;;;22.60;99.90;;;;;;4986433;28;20046;-59
2023/09/18 12:14:31;;;;;;;8.85;5.22;;;22.60;99.90;;;;;;5003034;28;20050;-59
2023/09/18 12:16:57;;;;;;;6.82;4.22;;;22.50;99.90;;;;;;5005335;28;20053;-60
2023/09/18 12:19:23;;;;;;;8.15;4.43;;;22.50;99.90;;;;;;4987851;28;20038;-57
2023/09/18 12:21:49;;;;;;;7.50;4.45;;;22.40;99.90;;;;;;5005077;28;20111;-55
2023/09/18 12:24:22;;;;;;;5.13;4.22;;;22.50;99.90;;;;;;5004477;28;20125;-60
2023/09/18 12:26:47;;;;;;;11.57;4.38;;;22.50;99.90;;;;;;5005085;28;20049;-59
2023/09/18 12:29:14;;;;;;;4.57;3.90;;;22.50;99.90;;;;;;5004201;28;20057;-54
2023/09/18 12:31:40;;;;;;;7.10;5.63;;;22.40;99.90;;;;;;4997146;28;20034;-52
2023/09/18 12:34:23;;;;;;;6.65;4.03;;;22.40;99.90;;;;;;4984698;28;20100;-55